Time;durP1;ratioP1;P1;durP2;ratioP2;P2;SDS_P1;SDS_P2;PMS_P1;PMS_P2;Temp;Humidity;BMP_temperature;BMP_pressure;BME280_temperature;BME280_humidity;BME280_pressure;Samples;Min_cycle;Max_cycle;Signal;HPM_P1;HPM_P2
2022/11/26 00:00:40;;;;;;;;;;;;;;;12.88;52.20;101315.91;4979606;28;126206;-66
2022/11/26 00:03:08;;;;;;;;;;;;;;;12.89;52.08;101319.44;4982161;28;128088;-64
2022/11/26 00:05:34;;;;;;;;;;;;;;;12.88;52.08;101318.63;4981106;28;121253;-63
2022/11/26 00:08:01;;;;;;;;;;;;;;;12.89;52.25;101322.13;4981010;28;97855;-63
2022/11/26 00:10:29;;;;;;;;;;;;;;;12.89;52.14;101319.44;4985320;27;98236;-66
2022/11/26 00:12:55;;;;;;;;;;;;;;;12.88;52.02;101321.31;4962496;28;122921;-66
2022/11/26 00:15:24;;;;;;;;;;;;;;;12.88;52.50;101324.03;4981116;28;127573;-66
2022/11/26 00:17:50;;;;;;;;;;;;;;;12.89;52.29;101327.53;4984142;28;109140;-63
2022/11/26 00:20:17;;;;;;;;;;;;;;;12.88;52.21;101332.16;4981922;28;99003;-65
2022/11/26 00:22:48;;;;;;;;;;;;;;;12.89;52.44;101335.66;4968023;28;123862;-64
2022/11/26 00:25:19;;;;;;;;;;;;;;;12.87;52.47;101327.81;4966230;28;99364;-66
2022/11/26 00:27:45;;;;;;;;;;;;;;;12.89;52.25;101335.66;4981082;28;98129;-66
2022/11/26 00:30:15;;;;;;;;;;;;;;;12.89;52.45;101333.78;4983558;28;98448;-63
2022/11/26 00:32:41;;;;;;;;;;;;;;;12.89;52.06;101332.94;4978652;28;119868;-67
2022/11/26 00:35:07;;;;;;;;;;;;;;;12.89;52.34;101339.22;4982393;28;126436;-66
2022/11/26 00:37:52;;;;;;;;;;;;;;;12.89;52.46;101341.91;4981639;28;98557;-63
2022/11/26 00:40:22;;;;;;;;;;;;;;;12.90;52.29;101345.44;4983137;28;119498;-66
2022/11/26 00:42:48;;;;;;;;;;;;;;;12.89;52.37;101339.22;4983575;28;98758;-63
2022/11/26 00:45:18;;;;;;;;;;;;;;;12.89;52.31;101349.19;4984740;28;98033;-64
2022/11/26 00:47:44;;;;;;;;;;;;;;;12.90;52.06;101348.13;4965873;28;120668;-63
2022/11/26 00:50:18;;;;;;;;;;;;;;;12.91;52.06;101355.16;4984335;28;98098;-66
2022/11/26 00:52:45;;;;;;;;;;;;;;;12.90;52.16;101357.06;4982625;27;106129;-64
2022/11/26 00:55:48;;;;;;;;;;;;;;;12.90;52.38;101358.97;4982882;28;128503;-66
2022/11/26 00:58:22;;;;;;;;;;;;;;;12.89;52.26;101366.25;4949791;28;99534;-66
2022/11/26 01:00:48;;;;;;;;;;;;;;;12.89;52.20;101363.56;4982031;28;98724;-62
2022/11/26 01:03:14;;;;;;;;;;;;;;;12.90;52.10;101372.50;4982787;27;127149;-65
2022/11/26 01:05:40;;;;;;;;;;;;;;;12.89;52.44;101376.25;4983197;28;97954;-63
2022/11/26 01:08:25;;;;;;;;;;;;;;;12.89;52.12;101370.84;4975795;27;120548;-63
2022/11/26 01:10:51;;;;;;;;;;;;;;;12.90;52.45;101376.00;4958579;28;111946;-66
2022/11/26 01:13:17;;;;;;;;;;;;;;;12.91;52.13;101382.22;4981381;27;128563;-66
2022/11/26 01:15:43;;;;;;;;;;;;;;;12.89;52.29;101379.78;4984335;28;98142;-65
2022/11/26 01:18:12;;;;;;;;;;;;;;;12.90;52.13;101377.91;4981857;28;121906;-66
2022/11/26 01:20:38;;;;;;;;;;;;;;;12.89;52.17;101387.91;4968054;28;98848;-63
2022/11/26 01:23:04;;;;;;;;;;;;;;;12.90;52.18;101384.13;4979645;28;117598;-64
2022/11/26 01:25:29;;;;;;;;;;;;;;;12.91;52.56;101387.63;4979230;28;126301;-66
2022/11/26 01:27:55;;;;;;;;;;;;;;;12.90;52.20;101388.72;4978314;28;123211;-66
2022/11/26 01:30:24;;;;;;;;;;;;;;;12.90;52.29;101397.66;4982516;28;128139;-66
2022/11/26 01:32:49;;;;;;;;;;;;;;;12.89;52.51;101390.63;4981194;28;112577;-64
2022/11/26 01:35:16;;;;;;;;;;;;;;;12.90;52.50;101388.72;4982995;28;105741;-63
2022/11/26 01:37:42;;;;;;;;;;;;;;;12.90;52.45;101396.84;4981920;28;118415;-66
2022/11/26 01:40:17;;;;;;;;;;;;;;;12.88;52.51;101394.38;4979152;28;98996;-63
2022/11/26 01:42:44;;;;;;;;;;;;;;;12.90;52.37;101399.56;4979645;28;98625;-63
2022/11/26 01:45:17;;;;;;;;;;;;;;;12.90;52.44;101399.56;4963593;28;119960;-63
2022/11/26 01:47:47;;;;;;;;;;;;;;;12.89;52.17;101392.47;4980749;28;119077;-66
2022/11/26 01:50:31;;;;;;;;;;;;;;;12.86;52.14;101399.25;4980799;28;98395;-66
2022/11/26 01:53:11;;;;;;;;;;;;;;;12.90;52.28;101399.56;4981531;28;98528;-64
2022/11/26 01:55:41;;;;;;;;;;;;;;;12.88;52.34;101399.78;4963335;28;128059;-63
2022/11/26 01:58:08;;;;;;;;;;;;;;;12.89;52.08;101403.31;4959974;28;109932;-64
2022/11/26 02:00:33;;;;;;;;;;;;;;;12.89;52.48;101406.00;4964981;28;123071;-66
2022/11/26 02:02:59;;;;;;;;;;;;;;;12.90;52.27;101410.38;4976725;28;126021;-63
2022/11/26 02:05:27;;;;;;;;;;;;;;;12.90;52.35;101418.50;4959422;28;125839;-66
2022/11/26 02:07:53;;;;;;;;;;;;;;;12.89;52.22;101427.66;4964226;28;115237;-64
2022/11/26 02:10:19;;;;;;;;;;;;;;;12.90;52.07;101418.50;4947964;28;126861;-64
2022/11/26 02:12:45;;;;;;;;;;;;;;;12.89;52.06;101430.38;4981561;28;128098;-66
2022/11/26 02:15:11;;;;;;;;;;;;;;;12.90;52.14;101430.13;4961779;28;125850;-66
2022/11/26 02:17:38;;;;;;;;;;;;;;;12.89;52.38;101444.75;4962633;28;98101;-66
2022/11/26 02:20:22;;;;;;;;;;;;;;;12.89;52.50;101441.19;4963594;28;121152;-63
2022/11/26 02:23:15;;;;;;;;;;;;;;;12.89;52.28;101447.44;4980726;27;98053;-66
2022/11/26 02:26:14;;;;;;;;;;;;;;;12.90;52.26;101448.25;4959980;28;98266;-66
2022/11/26 02:29:15;;;;;;;;;;;;;;;12.89;52.42;101452.84;4962582;28;122071;-65
2022/11/26 02:31:55;;;;;;;;;;;;;;;12.89;51.98;101455.56;4982333;28;98813;-66
2022/11/26 02:34:22;;;;;;;;;;;;;;;12.90;52.36;101450.97;4963725;28;101307;-66
2022/11/26 02:36:57;;;;;;;;;;;;;;;12.90;52.57;101459.06;4982228;28;99362;-63
2022/11/26 02:39:25;;;;;;;;;;;;;;;12.90;52.14;101456.38;4946692;28;98063;-66
2022/11/26 02:41:52;;;;;;;;;;;;;;;12.90;52.42;101459.06;4978834;27;128350;-66
2022/11/26 02:44:27;;;;;;;;;;;;;;;12.89;52.21;101463.69;4980451;28;123572;-65
2022/11/26 02:46:59;;;;;;;;;;;;;;;12.89;52.43;101466.38;4980799;28;128164;-63
2022/11/26 02:49:25;;;;;;;;;;;;;;;12.90;52.13;101473.41;4962100;28;120534;-66
2022/11/26 02:51:56;;;;;;;;;;;;;;;12.89;52.36;101474.50;4980546;28;127722;-66
2022/11/26 02:54:22;;;;;;;;;;;;;;;12.90;52.19;101468.00;4942801;28;122234;-64
2022/11/26 02:56:48;;;;;;;;;;;;;;;12.89;52.51;101469.09;4977647;28;115736;-63
2022/11/26 02:59:14;;;;;;;;;;;;;;;12.89;52.08;101471.78;4958969;28;97963;-63
2022/11/26 03:01:43;;;;;;;;;;;;;;;12.90;52.56;101469.91;4980364;28;128263;-64
2022/11/26 03:04:15;;;;;;;;;;;;;;;12.89;52.54;101468.25;4958834;28;98526;-64
2022/11/26 03:06:41;;;;;;;;;;;;;;;12.91;52.49;101479.66;4963108;28;127377;-63
2022/11/26 03:09:07;;;;;;;;;;;;;;;12.90;52.29;101484.25;4945659;28;121407;-66
2022/11/26 03:11:33;;;;;;;;;;;;;;;12.90;52.48;101478.84;4978617;27;127726;-66
2022/11/26 03:13:59;;;;;;;;;;;;;;;12.90;52.39;101486.94;4959505;28;127712;-64
2022/11/26 03:16:25;;;;;;;;;;;;;;;12.91;52.40;101491.28;4980869;28;126860;-66
2022/11/26 03:18:51;;;;;;;;;;;;;;;12.90;52.54;101489.66;4981099;28;98287;-63
2022/11/26 03:21:16;;;;;;;;;;;;;;;12.90;52.56;101494.25;4979352;28;126707;-66
2022/11/26 03:23:42;;;;;;;;;;;;;;;12.89;52.57;101495.31;4981396;28;128370;-65
2022/11/26 03:26:08;;;;;;;;;;;;;;;12.90;52.22;101500.47;4979727;28;127679;-63
2022/11/26 03:28:34;;;;;;;;;;;;;;;12.89;52.38;101506.97;4979795;28;120596;-66
2022/11/26 03:31:00;;;;;;;;;;;;;;;12.90;52.32;101499.66;4963239;28;98590;-66
2022/11/26 03:33:26;;;;;;;;;;;;;;;12.90;52.34;101508.59;4980483;28;98294;-63
2022/11/26 03:35:52;;;;;;;;;;;;;;;12.89;52.45;101506.97;4981688;28;127167;-66
2022/11/26 03:38:18;;;;;;;;;;;;;;;12.89;52.43;101512.38;4984904;28;122485;-64
2022/11/26 03:40:44;;;;;;;;;;;;;;;12.90;52.29;101510.50;4984958;28;127205;-66
2022/11/26 03:43:10;;;;;;;;;;;;;;;12.90;52.33;101522.13;4982773;28;128772;-66
2022/11/26 03:45:36;;;;;;;;;;;;;;;12.90;52.51;101521.31;4984617;28;128442;-66
2022/11/26 03:48:02;;;;;;;;;;;;;;;12.89;52.23;101525.06;4962718;28;121454;-66
2022/11/26 03:50:28;;;;;;;;;;;;;;;12.89;52.54;101522.38;4963972;28;98787;-63
2022/11/26 03:52:54;;;;;;;;;;;;;;;12.88;52.17;101526.97;4981092;28;128219;-63
2022/11/26 03:55:20;;;;;;;;;;;;;;;12.90;52.48;101534.84;4966422;28;128004;-64
2022/11/26 03:57:45;;;;;;;;;;;;;;;12.88;52.17;101532.38;4984685;28;98041;-66
2022/11/26 04:00:12;;;;;;;;;;;;;;;12.89;52.46;101535.91;4982479;28;127284;-63
2022/11/26 04:02:38;;;;;;;;;;;;;;;12.90;52.52;101529.44;4982329;28;111627;-66
2022/11/26 04:05:04;;;;;;;;;;;;;;;12.89;52.30;101531.31;4981772;28;127616;-66
2022/11/26 04:07:30;;;;;;;;;;;;;;;12.89;52.35;101541.31;4982534;28;97979;-64
2022/11/26 04:09:56;;;;;;;;;;;;;;;12.89;52.51;101534.03;4966473;28;101889;-64
2022/11/26 04:12:22;;;;;;;;;;;;;;;12.89;52.21;101536.75;4983632;28;127811;-64
2022/11/26 04:14:48;;;;;;;;;;;;;;;12.90;52.32;101535.66;4973841;28;127119;-63
2022/11/26 04:17:14;;;;;;;;;;;;;;;12.91;52.21;101533.75;4982939;28;120449;-65
2022/11/26 04:19:40;;;;;;;;;;;;;;;12.90;52.29;101543.78;4980063;28;127824;-64
2022/11/26 04:22:06;;;;;;;;;;;;;;;12.91;52.51;101536.47;4982790;28;127446;-65
2022/11/26 04:24:31;;;;;;;;;;;;;;;12.90;52.17;101529.44;4980384;28;124999;-64
2022/11/26 04:26:57;;;;;;;;;;;;;;;12.90;52.37;101537.56;4982978;28;122931;-66
2022/11/26 04:29:23;;;;;;;;;;;;;;;12.91;52.15;101539.19;4984758;28;128252;-66
2022/11/26 04:31:49;;;;;;;;;;;;;;;12.90;52.50;101554.59;4984229;28;126416;-66
2022/11/26 04:34:15;;;;;;;;;;;;;;;12.90;52.45;101561.91;4968412;28;98177;-64
2022/11/26 04:36:41;;;;;;;;;;;;;;;12.90;52.39;101562.72;4983303;28;120725;-64
2022/11/26 04:39:07;;;;;;;;;;;;;;;12.91;52.16;101568.94;4982430;28;128708;-66
2022/11/26 04:41:33;;;;;;;;;;;;;;;12.90;52.30;101578.97;4952524;28;128942;-67
2022/11/26 04:43:59;;;;;;;;;;;;;;;12.90;52.41;101581.66;4965857;28;127343;-66
2022/11/26 04:46:25;;;;;;;;;;;;;;;12.90;52.27;101588.97;4982771;28;122132;-65
2022/11/26 04:48:51;;;;;;;;;;;;;;;12.91;52.43;101591.41;4960744;28;127178;-66
2022/11/26 04:51:17;;;;;;;;;;;;;;;12.91;52.50;101588.69;4983744;28;127774;-66
2022/11/26 04:53:42;;;;;;;;;;;;;;;12.91;52.24;101596.00;4956623;28;106399;-64
2022/11/26 04:56:08;;;;;;;;;;;;;;;12.91;52.42;101598.72;4981789;28;121194;-66
2022/11/26 04:58:34;;;;;;;;;;;;;;;12.91;52.34;101604.13;4983786;27;128603;-66
2022/11/26 05:01:00;;;;;;;;;;;;;;;12.92;52.59;101609.28;4964201;27;128676;-66
2022/11/26 05:03:26;;;;;;;;;;;;;;;12.91;52.41;101612.25;4983386;27;97961;-65
2022/11/26 05:05:52;;;;;;;;;;;;;;;12.91;52.39;101615.75;4984097;27;104314;-64
2022/11/26 05:08:18;;;;;;;;;;;;;;;12.90;52.20;101619.53;4983290;27;98290;-64
2022/11/26 05:10:44;;;;;;;;;;;;;;;12.91;52.49;101629.28;4966552;28;129070;-66
2022/11/26 05:13:10;;;;;;;;;;;;;;;12.92;52.24;101624.69;4980531;27;127843;-66
2022/11/26 05:15:36;;;;;;;;;;;;;;;12.91;52.46;101628.47;4981844;27;122649;-63
2022/11/26 05:18:02;;;;;;;;;;;;;;;12.91;52.49;101637.41;4981941;27;126996;-64
2022/11/26 05:20:28;;;;;;;;;;;;;;;12.91;52.59;101632.00;4985038;27;122306;-66
2022/11/26 05:22:53;;;;;;;;;;;;;;;12.91;52.44;101631.19;4981683;27;127446;-63
2022/11/26 05:25:19;;;;;;;;;;;;;;;12.91;52.58;101639.31;4982986;28;120676;-64
2022/11/26 05:27:45;;;;;;;;;;;;;;;12.91;52.34;101642.81;4982053;28;126285;-64
2022/11/26 05:30:12;;;;;;;;;;;;;;;12.91;52.54;101645.53;4982598;28;127874;-64
2022/11/26 05:32:37;;;;;;;;;;;;;;;12.91;52.48;101645.53;4981301;27;118945;-64
2022/11/26 05:35:04;;;;;;;;;;;;;;;12.92;52.56;101643.63;4971541;27;123275;-63
2022/11/26 05:37:30;;;;;;;;;;;;;;;12.92;52.33;101649.88;4974378;27;127067;-64
2022/11/26 05:39:55;;;;;;;;;;;;;;;12.92;52.58;101663.38;4983464;28;98109;-66
2022/11/26 05:42:21;;;;;;;;;;;;;;;12.92;52.12;101657.97;4973605;28;126641;-65
2022/11/26 05:44:47;;;;;;;;;;;;;;;12.92;52.16;101649.03;4975381;28;97745;-66
2022/11/26 05:47:13;;;;;;;;;;;;;;;12.93;52.45;101653.38;4981987;27;128282;-64
2022/11/26 05:49:39;;;;;;;;;;;;;;;12.92;52.45;101660.69;4980218;27;128197;-64
2022/11/26 05:52:05;;;;;;;;;;;;;;;12.93;52.09;101653.38;4981833;28;127561;-66
2022/11/26 05:54:31;;;;;;;;;;;;;;;12.93;52.53;101656.09;4981984;28;122558;-66
2022/11/26 05:56:57;;;;;;;;;;;;;;;12.93;52.61;101661.50;4963876;28;127535;-64
2022/11/26 05:59:23;;;;;;;;;;;;;;;12.94;52.55;101666.69;4964753;28;98422;-64
2022/11/26 06:01:49;;;;;;;;;;;;;;;12.93;52.27;101665.03;4980238;27;99477;-66
2022/11/26 06:04:15;;;;;;;;;;;;;;;12.94;52.40;101680.22;4958827;28;122368;-65
2022/11/26 06:06:41;;;;;;;;;;;;;;;12.93;52.62;101675.88;4981377;28;127850;-65
2022/11/26 06:09:07;;;;;;;;;;;;;;;12.94;52.26;101676.69;4981179;27;128619;-64
2022/11/26 06:11:33;;;;;;;;;;;;;;;12.94;52.62;101679.41;4983124;28;97932;-63
2022/11/26 06:13:59;;;;;;;;;;;;;;;12.94;52.55;101684.81;4981653;27;120902;-66
2022/11/26 06:16:25;;;;;;;;;;;;;;;12.93;52.34;101684.00;4982777;28;116249;-65
2022/11/26 06:18:51;;;;;;;;;;;;;;;12.94;52.62;101679.41;4980538;27;108468;-64
2022/11/26 06:21:16;;;;;;;;;;;;;;;12.94;52.58;101696.44;4981558;27;98379;-64
2022/11/26 06:23:42;;;;;;;;;;;;;;;12.95;52.63;101697.25;4973040;27;121760;-64
2022/11/26 06:26:09;;;;;;;;;;;;;;;12.95;52.57;101694.56;4965967;28;98836;-64
2022/11/26 06:28:35;;;;;;;;;;;;;;;12.95;52.32;101695.38;4971715;28;104719;-64
2022/11/26 06:31:01;;;;;;;;;;;;;;;12.95;52.20;101698.06;4975170;28;128536;-64
2022/11/26 06:33:27;;;;;;;;;;;;;;;12.96;52.19;101710.53;4970771;28;121781;-65
2022/11/26 06:35:57;;;;;;;;;;;;;;;12.96;52.61;101709.72;4973646;28;97919;-65
2022/11/26 06:38:23;;;;;;;;;;;;;;;12.96;52.66;101710.53;4962616;28;116541;-66
2022/11/26 06:40:55;;;;;;;;;;;;;;;12.97;52.59;101722.19;4981708;28;126566;-64
2022/11/26 06:43:21;;;;;;;;;;;;;;;12.97;52.31;101723.00;4978405;27;121243;-66
2022/11/26 06:45:47;;;;;;;;;;;;;;;12.98;52.23;101723.81;4961560;28;127952;-65
2022/11/26 06:48:13;;;;;;;;;;;;;;;12.97;52.24;101728.41;4972630;28;126950;-64
2022/11/26 06:50:39;;;;;;;;;;;;;;;12.98;52.57;101724.63;4979577;28;128409;-64
2022/11/26 06:53:05;;;;;;;;;;;;;;;13.00;52.17;101727.91;4981479;28;122675;-65
2022/11/26 06:55:31;;;;;;;;;;;;;;;12.99;52.48;101728.97;4981224;28;125616;-66
2022/11/26 06:57:56;;;;;;;;;;;;;;;13.01;52.20;101739.56;4981385;27;128201;-66
2022/11/26 07:00:22;;;;;;;;;;;;;;;13.00;52.60;101746.84;4981220;27;126635;-64
2022/11/26 07:02:48;;;;;;;;;;;;;;;13.01;52.25;101744.97;4979942;27;120054;-64
2022/11/26 07:05:14;;;;;;;;;;;;;;;13.03;52.37;101756.34;4981001;28;109938;-64
2022/11/26 07:07:40;;;;;;;;;;;;;;;13.02;52.61;101744.72;4976110;27;126828;-64
2022/11/26 07:10:07;;;;;;;;;;;;;;;13.04;52.40;101752.56;4972693;28;127523;-64
2022/11/26 07:12:32;;;;;;;;;;;;;;;13.03;52.17;101753.66;4979795;28;98653;-66
2022/11/26 07:14:58;;;;;;;;;;;;;;;13.04;52.32;101755.28;4976895;28;127942;-66
2022/11/26 07:17:24;;;;;;;;;;;;;;;13.05;52.23;101762.34;4977598;27;128440;-64
2022/11/26 07:19:50;;;;;;;;;;;;;;;13.07;52.39;101770.22;4959791;28;105946;-64
2022/11/26 07:22:16;;;;;;;;;;;;;;;13.07;52.55;101765.59;4973970;28;122769;-64
2022/11/26 07:24:42;;;;;;;;;;;;;;;13.08;52.33;101763.72;4977190;28;125921;-64
2022/11/26 07:27:08;;;;;;;;;;;;;;;13.08;52.14;101775.34;4975351;28;104337;-64
2022/11/26 07:29:34;;;;;;;;;;;;;;;13.09;52.22;101774.31;4977975;28;126726;-64
2022/11/26 07:32:00;;;;;;;;;;;;;;;13.11;52.33;101766.72;4976923;28;121075;-66
2022/11/26 07:34:26;;;;;;;;;;;;;;;13.11;52.25;101774.84;4976122;28;128331;-64
2022/11/26 07:36:52;;;;;;;;;;;;;;;13.12;52.60;101779.19;4977332;28;98619;-66
2022/11/26 07:39:18;;;;;;;;;;;;;;;13.12;52.23;101773.78;4974978;28;126375;-66
2022/11/26 07:41:43;;;;;;;;;;;;;;;13.13;52.21;101780.03;4977423;28;111829;-64
2022/11/26 07:44:13;;;;;;;;;;;;;;;13.14;52.25;101784.38;4977690;28;100333;-66
2022/11/26 07:46:39;;;;;;;;;;;;;;;13.14;52.21;101782.47;4976399;28;98135;-64
2022/11/26 07:49:04;;;;;;;;;;;;;;;13.18;52.49;101785.50;4975600;28;119319;-66
2022/11/26 07:51:31;;;;;;;;;;;;;;;13.19;52.20;101781.72;4975256;27;121957;-66
2022/11/26 07:53:58;;;;;;;;;;;;;;;13.22;52.23;101792.03;4976037;28;115860;-66
2022/11/26 07:56:24;;;;;;;;;;;;;;;13.23;52.22;101793.72;4977030;28;98414;-64
2022/11/26 07:58:50;;;;;;;;;;;;;;;13.27;52.12;101792.13;4977183;27;98631;-66
2022/11/26 08:01:18;;;;;;;;;;;;;;;13.28;52.13;101796.47;4977460;27;120474;-66
2022/11/26 08:03:45;;;;;;;;;;;;;;;13.31;52.38;101803.28;4978956;27;98550;-66
2022/11/26 08:06:13;;;;;;;;;;;;;;;13.34;52.25;101805.47;4977082;28;98315;-64
2022/11/26 08:08:39;;;;;;;;;;;;;;;13.36;51.87;101809.59;4976759;28;126642;-64
2022/11/26 08:11:14;;;;;;;;;;;;;;;13.37;52.04;101805.78;4977314;28;121628;-65
2022/11/26 08:13:40;;;;;;;;;;;;;;;13.39;52.17;101811.75;4977500;28;98333;-66
2022/11/26 08:16:06;;;;;;;;;;;;;;;13.41;52.12;101817.75;4977437;28;98211;-66
2022/11/26 08:18:32;;;;;;;;;;;;;;;13.45;52.23;101829.72;4976837;28;128164;-64
2022/11/26 08:20:59;;;;;;;;;;;;;;;13.47;52.32;101826.75;4975184;27;114242;-66
2022/11/26 08:23:25;;;;;;;;;;;;;;;13.48;52.19;101834.63;4981375;28;98417;-64
2022/11/26 08:25:51;;;;;;;;;;;;;;;13.48;52.04;101829.22;4944977;28;99869;-64
2022/11/26 08:28:18;;;;;;;;;;;;;;;13.49;52.35;101835.44;4978525;28;128214;-66
2022/11/26 08:30:44;;;;;;;;;;;;;;;13.48;52.50;101833.81;4961741;28;122527;-63
2022/11/26 08:33:09;;;;;;;;;;;;;;;13.48;52.46;101836.53;4955575;28;128794;-64
2022/11/26 08:35:35;;;;;;;;;;;;;;;13.48;52.04;101829.22;4958884;28;128103;-65
2022/11/26 08:38:01;;;;;;;;;;;;;;;13.49;52.38;101841.69;4978838;28;99307;-63
2022/11/26 08:40:27;;;;;;;;;;;;;;;13.49;52.34;101849.81;4956858;28;98327;-66
2022/11/26 08:42:53;;;;;;;;;;;;;;;13.49;52.48;101852.53;4980434;28;127401;-65
2022/11/26 08:45:19;;;;;;;;;;;;;;;13.51;52.32;101852.25;4974810;28;127599;-63
2022/11/26 08:47:45;;;;;;;;;;;;;;;13.51;52.04;101853.06;4978512;28;126538;-66
2022/11/26 08:50:11;;;;;;;;;;;;;;;13.51;52.39;101853.06;4959848;28;122680;-64
2022/11/26 08:52:37;;;;;;;;;;;;;;;13.51;52.46;101853.06;4976159;28;126234;-66
2022/11/26 08:55:03;;;;;;;;;;;;;;;13.53;52.49;101852.84;4978331;28;125281;-66
2022/11/26 08:57:29;;;;;;;;;;;;;;;13.56;52.23;101865.88;4975792;27;98902;-63
2022/11/26 08:59:55;;;;;;;;;;;;;;;13.57;52.37;101869.41;4980351;28;122008;-63
2022/11/26 09:02:21;;;;;;;;;;;;;;;13.59;51.87;101868.06;4980292;28;127267;-66
2022/11/26 09:04:47;;;;;;;;;;;;;;;13.62;52.30;101870.25;4977151;28;118691;-63
2022/11/26 09:07:13;;;;;;;;;;;;;;;13.62;52.06;101870.25;4959676;28;124539;-63
2022/11/26 09:09:39;;;;;;;;;;;;;;;13.66;52.26;101868.69;4981195;28;97999;-64
2022/11/26 09:12:05;;;;;;;;;;;;;;;13.67;52.35;101875.72;4955974;28;130110;-63
2022/11/26 09:14:35;;;;;;;;;;;;;;;13.69;52.20;101876.31;4965619;28;98485;-63
2022/11/26 09:17:01;;;;;;;;;;;;;;;13.70;52.27;101871.72;4978673;28;98542;-66
2022/11/26 09:19:27;;;;;;;;;;;;;;;13.73;52.23;101882.88;4980245;28;99319;-64
2022/11/26 09:21:53;;;;;;;;;;;;;;;13.72;52.31;101881.22;4979866;28;103340;-66
2022/11/26 09:24:20;;;;;;;;;;;;;;;13.73;52.18;101884.75;4978905;28;98256;-64
2022/11/26 09:26:47;;;;;;;;;;;;;;;13.72;52.32;101881.22;4960741;28;98398;-66
2022/11/26 09:29:14;;;;;;;;;;;;;;;13.72;52.25;101877.72;4980697;28;98148;-66
2022/11/26 09:31:41;;;;;;;;;;;;;;;13.73;52.09;101888.28;4959229;28;127046;-66
2022/11/26 09:34:08;;;;;;;;;;;;;;;13.73;52.39;101880.16;4977332;27;98806;-63
2022/11/26 09:36:34;;;;;;;;;;;;;;;13.79;52.39;101885.63;4978693;28;127608;-66
2022/11/26 09:38:59;;;;;;;;;;;;;;;13.83;52.40;101889.44;4979273;28;122454;-66
2022/11/26 09:41:47;;;;;;;;;;;;;;;13.85;51.93;101900.88;4979037;28;99102;-66
2022/11/26 09:44:34;;;;;;;;;;;;;;;13.89;51.84;101902.00;4978357;28;100223;-66
2022/11/26 09:47:17;;;;;;;;;;;;;;;13.92;52.20;101906.91;4956817;28;118758;-65
2022/11/26 09:49:49;;;;;;;;;;;;;;;13.94;52.14;101913.69;4960905;28;98280;-63
2022/11/26 09:52:16;;;;;;;;;;;;;;;13.95;52.17;101906.38;4980237;28;98890;-64
2022/11/26 09:54:42;;;;;;;;;;;;;;;13.96;51.90;101911.56;4945428;27;98253;-66
2022/11/26 09:57:18;;;;;;;;;;;;;;;14.02;52.28;101917.03;4958801;28;126581;-66
2022/11/26 09:59:45;;;;;;;;;;;;;;;14.03;51.98;101914.09;4952607;28;98013;-64
2022/11/26 10:02:11;;;;;;;;;;;;;;;14.03;52.27;101916.81;4977460;27;99070;-63
2022/11/26 10:04:39;;;;;;;;;;;;;;;14.05;51.84;101919.25;4963414;28;126549;-64
2022/11/26 10:07:18;;;;;;;;;;;;;;;14.07;52.21;101926.06;4964917;28;99532;-65
2022/11/26 10:09:59;;;;;;;;;;;;;;;14.08;52.25;101922.25;4980994;27;97921;-66
2022/11/26 10:12:47;;;;;;;;;;;;;;;14.08;51.94;101926.88;4958055;28;98659;-63
2022/11/26 10:15:26;;;;;;;;;;;;;;;14.08;51.88;101933.13;4977746;28;98635;-66
2022/11/26 10:18:31;;;;;;;;;;;;;;;14.07;51.93;101931.47;4958779;28;98333;-62
2022/11/26 10:21:05;;;;;;;;;;;;;;;14.06;52.03;101931.72;4915551;28;98288;-66
2022/11/26 10:23:34;;;;;;;;;;;;;;;14.04;51.84;101931.16;4898438;28;98734;-64
2022/11/26 10:26:04;;;;;;;;;;;;;;;14.04;52.15;101936.59;4947787;28;130023;-64
2022/11/26 10:28:40;;;;;;;;;;;;;;;14.01;51.95;101932.50;4958997;28;116292;-65
2022/11/26 10:31:18;;;;;;;;;;;;;;;14.02;52.07;101936.00;4979026;27;121100;-66
2022/11/26 10:33:51;;;;;;;;;;;;;;;14.01;52.00;101940.63;4962032;28;98656;-66
2022/11/26 10:36:23;;;;;;;;;;;;;;;14.00;52.36;101939.81;4959901;28;98636;-64
2022/11/26 10:38:49;;;;;;;;;;;;;;;14.02;52.26;101936.00;4978974;28;99558;-66
2022/11/26 10:41:15;;;;;;;;;;;;;;;14.02;52.24;101939.53;4978566;28;122981;-63
2022/11/26 10:43:41;;;;;;;;;;;;;;;13.99;51.74;101945.50;4958290;28;127649;-63
2022/11/26 10:46:07;;;;;;;;;;;;;;;14.00;52.40;101945.22;4976412;28;128749;-66
2022/11/26 10:48:33;;;;;;;;;;;;;;;14.00;51.99;101945.22;4977521;28;126721;-63
2022/11/26 10:51:04;;;;;;;;;;;;;;;13.99;52.21;101949.03;4978240;27;121373;-66
2022/11/26 10:53:45;;;;;;;;;;;;;;;14.00;52.02;101952.53;4961456;27;98859;-64
2022/11/26 10:56:16;;;;;;;;;;;;;;;14.00;52.38;101950.66;4976966;28;111517;-64
2022/11/26 10:58:42;;;;;;;;;;;;;;;14.02;51.93;101946.84;4975447;28;123454;-66
2022/11/26 11:01:08;;;;;;;;;;;;;;;14.00;52.02;101944.41;4957688;28;122351;-66
2022/11/26 11:03:45;;;;;;;;;;;;;;;14.02;51.94;101942.25;4953338;28;123502;-66
2022/11/26 11:06:20;;;;;;;;;;;;;;;14.04;52.13;101947.44;4960396;28;120448;-66
2022/11/26 11:08:46;;;;;;;;;;;;;;;14.04;52.32;101944.72;4978431;28;98119;-63
2022/11/26 11:11:21;;;;;;;;;;;;;;;14.07;52.25;101952.31;4958528;28;121012;-66
2022/11/26 11:13:47;;;;;;;;;;;;;;;14.10;51.80;101955.34;4977178;28;99279;-63
2022/11/26 11:16:29;;;;;;;;;;;;;;;14.12;52.20;101958.63;4977320;28;98899;-66
2022/11/26 11:18:56;;;;;;;;;;;;;;;14.13;51.77;101960.28;4956365;28;123191;-66
2022/11/26 11:21:23;;;;;;;;;;;;;;;14.15;52.19;101962.75;4978565;28;98166;-66
2022/11/26 11:23:49;;;;;;;;;;;;;;;14.16;51.86;101961.66;4960382;28;126454;-66
2022/11/26 11:26:22;;;;;;;;;;;;;;;14.17;51.87;101964.09;4977720;28;98263;-66
2022/11/26 11:28:50;;;;;;;;;;;;;;;14.18;52.05;101967.63;4978478;28;97764;-66
2022/11/26 11:31:20;;;;;;;;;;;;;;;14.18;52.20;101964.91;4964484;28;98226;-63
2022/11/26 11:33:47;;;;;;;;;;;;;;;14.16;52.25;101962.47;4956314;28;98797;-66
2022/11/26 11:36:13;;;;;;;;;;;;;;;14.20;52.28;101977.16;4959536;28;98087;-66
2022/11/26 11:38:47;;;;;;;;;;;;;;;14.22;51.92;101969.56;4978149;28;98678;-64
2022/11/26 11:41:31;;;;;;;;;;;;;;;14.25;52.08;101970.97;4976527;28;97850;-64
2022/11/26 11:44:19;;;;;;;;;;;;;;;14.27;51.89;101974.25;4976202;27;98588;-64
2022/11/26 11:46:48;;;;;;;;;;;;;;;14.29;51.86;101969.38;4955798;28;103435;-66
2022/11/26 11:49:33;;;;;;;;;;;;;;;14.32;52.01;101977.00;4977551;28;98408;-65
2022/11/26 11:52:16;;;;;;;;;;;;;;;14.34;52.03;101979.47;4963470;28;98878;-66
2022/11/26 11:54:59;;;;;;;;;;;;;;;14.36;51.89;101969.19;4976777;27;98331;-63
2022/11/26 11:57:49;;;;;;;;;;;;;;;14.38;51.80;101972.44;4955606;28;98277;-67
2022/11/26 12:00:17;;;;;;;;;;;;;;;14.39;52.14;101974.09;4947941;28;122147;-63
2022/11/26 12:02:59;;;;;;;;;;;;;;;14.39;51.64;101980.34;4950400;28;112082;-64
2022/11/26 12:05:38;;;;;;;;;;;;;;;14.37;51.90;101976.25;4947025;28;99054;-66
2022/11/26 12:08:22;;;;;;;;;;;;;;;14.35;52.24;101978.41;4971185;28;97768;-64
2022/11/26 12:10:54;;;;;;;;;;;;;;;14.33;51.88;101977.84;4962702;28;125244;-66
2022/11/26 12:13:20;;;;;;;;;;;;;;;14.34;52.22;101979.47;4977979;27;97924;-64
2022/11/26 12:15:52;;;;;;;;;;;;;;;14.35;52.11;101983.84;4959948;28;127615;-66
2022/11/26 12:18:26;;;;;;;;;;;;;;;14.34;52.00;101980.28;4960624;28;111533;-66
2022/11/26 12:21:07;;;;;;;;;;;;;;;14.33;52.22;101984.06;4980640;27;98088;-66
2022/11/26 12:23:53;;;;;;;;;;;;;;;14.32;52.19;101984.34;4961416;28;97967;-66
2022/11/26 12:26:22;;;;;;;;;;;;;;;14.30;51.94;101984.56;4961605;27;127932;-63
2022/11/26 12:29:30;;;;;;;;;;;;;;;14.28;52.02;101984.03;4961730;28;98223;-63
2022/11/26 12:32:09;;;;;;;;;;;;;;;14.28;52.25;101980.50;4886826;28;98383;-63
2022/11/26 12:34:50;;;;;;;;;;;;;;;14.28;52.02;101984.03;4881376;28;122521;-64
2022/11/26 12:37:34;;;;;;;;;;;;;;;14.33;51.98;101981.34;4932229;28;99055;-65
2022/11/26 12:40:18;;;;;;;;;;;;;;;14.35;52.17;101983.84;4977871;27;127807;-64